Time,TemperatureF,DewpointF,PressureIn,WindDirection,WindDirectionDegrees,WindSpeedMPH,WindSpeedGustMPH,Humidity,HourlyPrecipIn,Conditions,Clouds,dailyrainin,SolarRadiationWatts/m^2,SoftwareType,DateUTC
2013-11-30 00:02:00,30.0,23.0,-100.00,East,90,2.0,3.0,74,0.00,,,0.00,0.000000,,2013-11-30 05:02:00,
2013-11-30 00:43:00,30.0,23.0,-100.00,East,97,2.0,2.0,75,0.00,,,0.00,0.000000,,2013-11-30 05:43:00,
2013-11-30 00:53:00,30.0,23.0,-100.00,East,97,2.0,2.0,75,0.00,,,0.00,0.000000,,2013-11-30 05:53:00,
2013-11-30 01:02:00,30.0,23.0,-100.00,East,97,2.0,2.0,75,0.00,,,0.00,0.000000,,2013-11-30 06:02:00,
2013-11-30 01:42:00,33.0,23.0,-100.00,ESE,117,2.0,2.0,65,0.00,,,0.00,0.000000,,2013-11-30 06:42:00,
2013-11-30 01:52:00,33.0,23.0,-100.00,ESE,117,2.0,2.0,65,0.00,,,0.00,0.000000,,2013-11-30 06:52:00,
2013-11-30 02:01:00,33.0,23.0,-100.00,ESE,117,2.0,2.0,65,0.00,,,0.00,0.000000,,2013-11-30 07:01:00,
2013-11-30 02:42:00,32.0,23.0,-100.00,SSE,150,2.0,3.0,69,0.00,,,0.00,0.000000,,2013-11-30 07:42:00,
2013-11-30 02:52:00,32.0,23.0,-100.00,SSE,150,2.0,3.0,69,0.00,,,0.00,0.000000,,2013-11-30 07:52:00,
2013-11-30 03:01:00,32.0,23.0,-100.00,SSE,150,2.0,3.0,69,0.00,,,0.00,0.000000,,2013-11-30 08:01:00,
2013-11-30 03:42:00,33.0,25.0,-100.00,SSE,157,2.0,5.0,72,0.00,,,0.00,0.000000,,2013-11-30 08:42:00,
2013-11-30 03:52:00,33.0,25.0,-100.00,SSE,157,2.0,5.0,72,0.00,,,0.00,0.000000,,2013-11-30 08:52:00,
2013-11-30 04:02:00,33.0,25.0,-100.00,SSE,157,2.0,5.0,72,0.00,,,0.00,0.000000,,2013-11-30 09:02:00,
2013-11-30 04:43:00,34.0,23.0,-100.00,SSE,158,3.0,6.0,64,0.00,,,0.00,0.000000,,2013-11-30 09:43:00,
2013-11-30 04:54:00,34.0,23.0,-100.00,SSE,158,3.0,6.0,64,0.00,,,0.00,0.000000,,2013-11-30 09:54:00,
2013-11-30 05:03:00,34.0,23.0,-100.00,SSE,158,3.0,6.0,64,0.00,,,0.00,0.000000,,2013-11-30 10:03:00,
2013-11-30 05:42:00,33.0,23.0,-100.00,SSE,148,2.0,5.0,66,0.00,,,0.00,0.000000,,2013-11-30 10:42:00,
2013-11-30 05:53:00,33.0,23.0,-100.00,SSE,148,2.0,5.0,66,0.00,,,0.00,0.000000,,2013-11-30 10:53:00,
2013-11-30 06:02:00,33.0,23.0,-100.00,SSE,148,2.0,5.0,66,0.00,,,0.00,0.000000,,2013-11-30 11:02:00,
2013-11-30 06:42:00,34.0,24.0,-100.00,SSE,155,2.0,4.0,67,0.00,,,0.00,0.000000,,2013-11-30 11:42:00,
2013-11-30 06:52:00,34.0,24.0,-100.00,SSE,155,2.0,4.0,67,0.00,,,0.00,0.000000,,2013-11-30 11:52:00,
2013-11-30 07:02:00,34.0,24.0,-100.00,SSE,155,2.0,4.0,67,0.00,,,0.00,0.000000,,2013-11-30 12:02:00,
2013-11-30 07:42:00,33.0,25.0,-100.00,SSE,152,2.0,4.0,71,0.00,,,0.00,0.000000,,2013-11-30 12:42:00,
2013-11-30 07:52:00,33.0,25.0,-100.00,SSE,152,2.0,4.0,71,0.00,,,0.00,0.000000,,2013-11-30 12:52:00,
2013-11-30 08:01:00,33.0,25.0,-100.00,SSE,152,2.0,4.0,71,0.00,,,0.00,0.000000,,2013-11-30 13:01:00,
2013-11-30 08:42:00,35.0,24.0,-100.00,South,189,3.0,6.0,63,0.00,,,0.00,7.000000,,2013-11-30 13:42:00,
2013-11-30 08:52:00,35.0,24.0,-100.00,South,189,3.0,6.0,63,0.00,,,0.00,7.000000,,2013-11-30 13:52:00,
2013-11-30 09:01:00,35.0,24.0,-100.00,South,189,3.0,6.0,63,0.00,,,0.00,7.000000,,2013-11-30 14:01:00,
2013-11-30 09:42:00,38.0,26.0,-100.00,SSW,212,4.0,6.0,62,0.00,,,0.00,35.000000,,2013-11-30 14:42:00,
2013-11-30 09:53:00,38.0,26.0,-100.00,SSW,212,4.0,6.0,62,0.00,,,0.00,35.000000,,2013-11-30 14:53:00,
2013-11-30 10:02:00,38.0,26.0,-100.00,SSW,212,4.0,6.0,62,0.00,,,0.00,35.000000,,2013-11-30 15:02:00,
2013-11-30 10:43:00,44.0,28.0,-100.00,SW,215,7.0,10.0,53,0.00,,,0.00,147.000000,,2013-11-30 15:43:00,
2013-11-30 10:54:00,44.0,28.0,-100.00,SW,215,7.0,10.0,53,0.00,,,0.00,147.000000,,2013-11-30 15:54:00,
2013-11-30 11:03:00,44.0,28.0,-100.00,SW,215,7.0,10.0,53,0.00,,,0.00,147.000000,,2013-11-30 16:03:00,
2013-11-30 11:43:00,48.0,29.0,-100.00,SSW,206,7.0,12.0,48,0.00,,,0.00,341.000000,,2013-11-30 16:43:00,
2013-11-30 11:53:00,48.0,29.0,-100.00,SSW,206,7.0,12.0,48,0.00,,,0.00,341.000000,,2013-11-30 16:53:00,
2013-11-30 12:02:00,48.0,29.0,-100.00,SSW,206,7.0,12.0,48,0.00,,,0.00,341.000000,,2013-11-30 17:02:00,
2013-11-30 12:42:00,51.0,29.0,-100.00,SSW,211,7.0,11.0,42,0.00,,,0.00,432.000000,,2013-11-30 17:42:00,
2013-11-30 12:53:00,51.0,29.0,-100.00,SSW,211,7.0,11.0,42,0.00,,,0.00,432.000000,,2013-11-30 17:53:00,
2013-11-30 13:01:00,51.0,29.0,-100.00,SSW,211,7.0,11.0,42,0.00,,,0.00,432.000000,,2013-11-30 18:01:00,
2013-11-30 13:42:00,56.0,31.0,-100.00,SSW,207,7.0,15.0,39,0.00,,,0.00,478.000000,,2013-11-30 18:42:00,
2013-11-30 13:52:00,56.0,31.0,-100.00,SSW,207,7.0,15.0,39,0.00,,,0.00,478.000000,,2013-11-30 18:52:00,
2013-11-30 14:01:00,56.0,31.0,-100.00,SSW,207,7.0,15.0,39,0.00,,,0.00,478.000000,,2013-11-30 19:01:00,
2013-11-30 14:42:00,57.0,25.0,-100.00,SSW,212,10.0,18.0,29,0.00,,,0.00,454.000000,,2013-11-30 19:42:00,
2013-11-30 14:52:00,57.0,25.0,-100.00,SSW,212,10.0,18.0,29,0.00,,,0.00,454.000000,,2013-11-30 19:52:00,
2013-11-30 15:02:00,57.0,25.0,-100.00,SSW,212,10.0,18.0,29,0.00,,,0.00,454.000000,,2013-11-30 20:02:00,
2013-11-30 15:42:00,57.0,24.0,-100.00,SW,220,9.0,15.0,28,0.00,,,0.00,365.000000,,2013-11-30 20:42:00,
2013-11-30 15:52:00,57.0,24.0,-100.00,SW,220,9.0,15.0,28,0.00,,,0.00,365.000000,,2013-11-30 20:52:00,
2013-11-30 16:02:00,57.0,24.0,-100.00,SW,220,9.0,15.0,28,0.00,,,0.00,365.000000,,2013-11-30 21:02:00,
2013-11-30 16:43:00,56.0,25.0,-100.00,SW,216,6.0,15.0,30,0.00,,,0.00,224.000000,,2013-11-30 21:43:00,
2013-11-30 16:53:00,56.0,25.0,-100.00,SW,216,6.0,15.0,30,0.00,,,0.00,224.000000,,2013-11-30 21:53:00,
2013-11-30 17:03:00,56.0,25.0,-100.00,SW,216,6.0,15.0,30,0.00,,,0.00,224.000000,,2013-11-30 22:03:00,
2013-11-30 17:42:00,52.0,23.0,-100.00,SSW,203,4.0,12.0,32,0.00,,,0.00,84.000000,,2013-11-30 22:42:00,
2013-11-30 17:52:00,52.0,23.0,-100.00,SSW,203,4.0,12.0,32,0.00,,,0.00,84.000000,,2013-11-30 22:52:00,
2013-11-30 18:02:00,52.0,23.0,-100.00,SSW,203,4.0,12.0,32,0.00,,,0.00,84.000000,,2013-11-30 23:02:00,
2013-11-30 18:42:00,49.0,23.0,-100.00,SSW,196,4.0,6.0,36,0.00,,,0.00,4.000000,,2013-11-30 23:42:00,
2013-11-30 18:53:00,49.0,23.0,-100.00,SSW,196,4.0,6.0,36,0.00,,,0.00,4.000000,,2013-11-30 23:53:00,
2013-11-30 19:02:00,49.0,23.0,-100.00,SSW,196,4.0,6.0,36,0.00,,,0.00,4.000000,,2013-12-01 00:02:00,
2013-11-30 19:42:00,48.0,23.0,-100.00,SSW,195,4.0,8.0,37,0.00,,,0.00,0.000000,,2013-12-01 00:42:00,
2013-11-30 19:52:00,48.0,23.0,-100.00,SSW,195,4.0,8.0,37,0.00,,,0.00,0.000000,,2013-12-01 00:52:00,
2013-11-30 20:01:00,48.0,23.0,-100.00,SSW,195,4.0,8.0,37,0.00,,,0.00,0.000000,,2013-12-01 01:01:00,
2013-11-30 20:42:00,47.0,24.0,-100.00,SSW,211,5.0,8.0,40,0.00,,,0.00,0.000000,,2013-12-01 01:42:00,
2013-11-30 20:52:00,47.0,24.0,-100.00,SSW,211,5.0,8.0,40,0.00,,,0.00,0.000000,,2013-12-01 01:52:00,
2013-11-30 21:01:00,47.0,24.0,-100.00,SSW,211,5.0,8.0,40,0.00,,,0.00,0.000000,,2013-12-01 02:01:00,
2013-11-30 21:42:00,46.0,24.0,-100.00,SSW,198,4.0,12.0,41,0.00,,,0.00,0.000000,,2013-12-01 02:42:00,
2013-11-30 21:52:00,46.0,24.0,-100.00,SSW,198,4.0,12.0,41,0.00,,,0.00,0.000000,,2013-12-01 02:52:00,
2013-11-30 22:02:00,46.0,24.0,-100.00,SSW,198,4.0,12.0,41,0.00,,,0.00,0.000000,,2013-12-01 03:02:00,
2013-11-30 22:44:00,45.0,24.0,-100.00,SSW,201,5.0,10.0,43,0.00,,,0.00,0.000000,,2013-12-01 03:44:00,
2013-11-30 22:53:00,45.0,24.0,-100.00,SSW,201,5.0,10.0,43,0.00,,,0.00,0.000000,,2013-12-01 03:53:00,
2013-11-30 23:02:00,-999.0,-99.9,-100.00,SSW,201,5.0,10.0,-999,0.00,,,0.00,0.000000,,2013-12-01 04:02:00,
2013-11-30 23:42:00,44.0,23.0,-100.00,SSW,202,5.0,11.0,43,0.00,,,-99.99,0.000000,,2013-12-01 04:42:00,
2013-11-30 23:52:00,44.0,23.0,-100.00,SSW,202,5.0,11.0,43,0.00,,,-99.99,0.000000,,2013-12-01 04:52:00,